createdAt,value
2019-05-21T00:00:40.316Z,7.97
2019-05-21T00:03:29.513Z,5.17
2019-05-21T00:06:22.570Z,4.83
2019-05-21T00:09:11.787Z,5.00
2019-05-21T00:12:04.843Z,4.78
2019-05-21T00:14:57.652Z,9.15
2019-05-21T00:17:50.727Z,5.08
2019-05-21T00:20:43.774Z,6.53
2019-05-21T00:23:37.321Z,9.90
2019-05-21T00:26:30.122Z,11.08
2019-05-21T00:29:34.186Z,5.03
2019-05-21T00:32:37.483Z,10.58
2019-05-21T00:35:42.063Z,8.83
2019-05-21T00:38:45.368Z,12.15
2019-05-21T00:41:48.138Z,10.48
2019-05-21T00:44:40.938Z,8.15
2019-05-21T00:47:33.995Z,5.62
2019-05-21T00:50:27.311Z,8.13
2019-05-21T00:53:20.364Z,11.60
2019-05-21T00:56:09.584Z,8.95
2019-05-21T00:59:02.638Z,12.33
2019-05-21T01:01:55.442Z,13.43
2019-05-21T01:05:00.321Z,5.30
2019-05-21T01:07:41.292Z,12.30
2019-05-21T01:10:34.347Z,13.13
2019-05-21T01:13:27.403Z,12.70
2019-05-21T01:16:16.693Z,13.38
2019-05-21T01:19:09.679Z,13.38
2019-05-21T01:22:02.474Z,13.20
2019-05-21T01:24:55.535Z,12.53
2019-05-21T01:27:48.586Z,12.60
2019-05-21T01:30:41.385Z,11.78
2019-05-21T01:33:34.697Z,11.95
2019-05-21T01:36:27.755Z,12.10
2019-05-21T01:39:21.074Z,5.83
2019-05-21T01:42:14.377Z,9.65
2019-05-21T01:45:14.864Z,6.15
2019-05-21T01:48:07.917Z,5.33
2019-05-21T01:51:00.971Z,8.45
2019-05-21T01:53:51.131Z,4.85
2019-05-21T01:56:44.529Z,4.20
2019-05-21T01:59:34.508Z,4.22
2019-05-21T02:02:27.310Z,8.53
2019-05-21T02:05:32.017Z,4.72
2019-05-21T02:08:13.164Z,5.95
2019-05-21T02:11:06.217Z,6.35
2019-05-21T02:13:59.020Z,4.30
2019-05-21T02:16:48.268Z,4.30
2019-05-21T02:19:41.292Z,5.45
2019-05-21T02:22:34.349Z,4.10
2019-05-21T02:25:23.819Z,6.33
2019-05-21T02:28:16.616Z,4.40
2019-05-21T02:31:09.933Z,8.35
2019-05-21T02:34:02.989Z,5.92
2019-05-21T02:36:55.796Z,8.70
2019-05-21T02:39:49.611Z,7.47
2019-05-21T02:42:42.423Z,11.33
2019-05-21T02:45:36.247Z,7.05
2019-05-21T02:48:29.036Z,7.40
2019-05-21T02:51:22.089Z,8.23
2019-05-21T02:54:11.311Z,9.98
2019-05-21T02:57:04.360Z,9.13
2019-05-21T02:59:57.163Z,10.05
2019-05-21T03:02:52.526Z,10.50
2019-05-21T03:05:45.577Z,4.67
2019-05-21T03:08:38.383Z,8.03
2019-05-21T03:11:31.188Z,10.45
2019-05-21T03:14:23.983Z,7.25
2019-05-21T03:17:13.193Z,9.38
2019-05-21T03:20:02.354Z,10.72
2019-05-21T03:22:55.719Z,4.47
2019-05-21T03:25:48.776Z,4.37
2019-05-21T03:28:43.119Z,3.65
2019-05-21T03:31:36.170Z,4.37
2019-05-21T03:34:29.225Z,7.35
2019-05-21T03:37:22.130Z,9.93
2019-05-21T03:40:16.108Z,9.28
2019-05-21T03:46:14.252Z,5.85
2019-05-21T03:49:07.312Z,7.70
2019-05-21T03:52:00.361Z,9.58
2019-05-21T03:54:53.421Z,10.80
2019-05-21T03:57:46.735Z,10.68
2019-05-21T04:00:39.791Z,10.63
2019-05-21T04:03:32.842Z,11.93
2019-05-21T04:06:28.830Z,6.45
2019-05-21T04:09:18.698Z,11.20
2019-05-21T04:12:11.764Z,11.00
2019-05-21T04:15:04.376Z,10.40
2019-05-21T04:18:11.442Z,10.90
2019-05-21T04:21:04.757Z,11.00
2019-05-21T04:23:57.544Z,5.42
2019-05-21T04:26:50.348Z,11.55
2019-05-21T04:29:37.874Z,11.85
2019-05-21T04:32:27.059Z,9.50
2019-05-21T04:35:20.042Z,11.03
2019-05-21T04:38:12.862Z,10.82
2019-05-21T04:41:05.898Z,8.55
2019-05-21T04:43:59.212Z,11.63
2019-05-21T04:46:52.021Z,9.60
2019-05-21T04:49:44.819Z,5.92
2019-05-21T04:52:37.866Z,10.05
2019-05-21T04:55:27.096Z,5.33
2019-05-21T04:58:20.150Z,9.93
2019-05-21T05:01:13.454Z,6.03
2019-05-21T05:04:02.784Z,12.15
2019-05-21T05:06:56.747Z,8.73
2019-05-21T05:10:01.320Z,4.40
2019-05-21T05:12:54.381Z,10.13
2019-05-21T05:15:47.434Z,9.15
2019-05-21T05:18:41.768Z,9.13
2019-05-21T05:21:34.828Z,4.33
2019-05-21T05:24:27.624Z,5.42
2019-05-21T05:27:20.424Z,3.50
2019-05-21T05:30:13.225Z,5.28
2019-05-21T05:33:06.793Z,7.87
2019-05-21T05:36:00.361Z,10.03
2019-05-21T05:38:53.166Z,5.50
2019-05-21T05:41:45.961Z,4.35
2019-05-21T05:44:39.275Z,5.08
2019-05-21T05:47:32.334Z,4.37
2019-05-21T05:50:25.386Z,4.10
2019-05-21T05:53:18.444Z,4.47
2019-05-21T05:56:11.501Z,3.85
2019-05-21T05:59:05.069Z,10.88
2019-05-21T06:01:58.136Z,7.22
2019-05-21T06:04:50.923Z,11.85
2019-05-21T06:07:40.137Z,4.28
2019-05-21T06:10:33.198Z,3.72
2019-05-21T06:13:26.255Z,4.10
2019-05-21T06:16:19.072Z,5.83
2019-05-21T06:19:12.619Z,4.70
2019-05-21T06:22:05.673Z,5.03
2019-05-21T06:24:58.984Z,6.25
2019-05-21T06:27:52.299Z,5.35
2019-05-21T06:30:46.890Z,5.85
2019-05-21T06:33:39.945Z,6.80
2019-05-21T06:36:32.753Z,6.28
2019-05-21T06:39:25.814Z,6.47
2019-05-21T06:42:19.115Z,8.63
2019-05-21T06:45:13.461Z,8.00
2019-05-21T06:48:06.251Z,10.90
2019-05-21T06:50:59.313Z,10.15
2019-05-21T06:53:52.620Z,8.90
2019-05-21T06:56:45.675Z,14.87
2019-05-21T06:59:38.731Z,10.78
2019-05-21T07:02:31.528Z,9.98
2019-05-21T07:05:24.331Z,9.90
2019-05-21T07:08:32.072Z,10.60
2019-05-21T07:11:05.188Z,11.00
2019-05-21T07:13:58.125Z,12.43
2019-05-21T07:16:51.689Z,10.80
2019-05-21T07:19:44.748Z,9.68
2019-05-21T07:22:37.826Z,13.03
2019-05-21T07:25:30.856Z,9.33
2019-05-21T07:28:24.808Z,12.90
2019-05-21T07:31:17.995Z,12.30
2019-05-21T07:34:11.049Z,11.50
2019-05-21T07:37:03.852Z,10.93
2019-05-21T07:39:56.652Z,9.15
2019-05-21T07:42:49.714Z,10.75
2019-05-21T07:45:42.772Z,12.95
2019-05-21T07:48:35.589Z,11.93
2019-05-21T07:51:28.361Z,13.43
2019-05-21T07:54:21.425Z,9.85
2019-05-21T07:57:10.650Z,8.90
2019-05-21T08:00:03.689Z,11.97
2019-05-21T08:02:56.751Z,10.40
2019-05-21T08:05:49.805Z,11.97
2019-05-21T08:08:42.860Z,8.00
2019-05-21T08:11:36.175Z,9.28
2019-05-21T08:14:29.227Z,8.23
2019-05-21T08:17:22.289Z,7.83
2019-05-21T08:20:16.104Z,9.33
2019-05-21T08:23:09.168Z,7.78
2019-05-21T08:26:02.217Z,8.98
2019-05-21T08:28:51.481Z,7.85
2019-05-21T08:31:44.489Z,11.55
2019-05-21T08:34:37.595Z,9.48
2019-05-21T08:37:30.601Z,10.50
2019-05-21T08:40:23.662Z,12.05
2019-05-21T08:43:16.714Z,5.90
2019-05-21T08:46:09.771Z,8.95
2019-05-21T08:49:02.826Z,7.80
2019-05-21T08:51:56.910Z,13.00
2019-05-21T08:55:05.840Z,8.13
2019-05-21T08:58:07.034Z,5.08
2019-05-21T09:00:53.226Z,9.35
2019-05-21T09:03:46.285Z,10.55
2019-05-21T09:06:35.539Z,6.12
2019-05-21T09:09:47.889Z,5.97
2019-05-21T09:12:21.869Z,10.78
2019-05-21T09:15:15.179Z,5.97
2019-05-21T09:18:08.500Z,11.48
2019-05-21T09:21:00.777Z,8.45
2019-05-21T09:23:53.844Z,4.72
2019-05-21T09:26:47.150Z,12.05
2019-05-21T09:29:40.203Z,10.45
2019-05-21T09:32:33.313Z,6.12
2019-05-21T09:35:22.475Z,9.85
2019-05-21T09:38:15.790Z,10.32
2019-05-21T09:41:09.099Z,5.70
2019-05-21T09:44:02.411Z,4.83
2019-05-21T09:46:55.976Z,7.33
2019-05-21T09:49:49.037Z,5.17
2019-05-21T09:52:43.883Z,6.67
2019-05-21T09:55:36.944Z,5.50
2019-05-21T09:58:41.259Z,6.17
2019-05-21T10:01:48.000Z,9.73
2019-05-21T10:04:38.386Z,4.83
2019-05-21T10:07:39.743Z,4.80
2019-05-21T10:10:24.492Z,4.65
2019-05-21T10:13:17.546Z,6.08
2019-05-21T10:16:10.860Z,8.65
2019-05-21T10:19:04.428Z,7.67
2019-05-21T10:21:57.736Z,4.35
2019-05-21T10:24:50.792Z,8.70
2019-05-21T10:27:43.851Z,4.00
2019-05-21T10:30:37.170Z,8.95
2019-05-21T10:33:30.217Z,3.92
2019-05-21T10:36:23.017Z,5.28
2019-05-21T10:39:12.491Z,3.90
2019-05-21T10:42:05.290Z,5.90
2019-05-21T10:44:59.374Z,6.58
2019-05-21T10:47:52.236Z,6.08
2019-05-21T10:50:41.327Z,3.83
2019-05-21T10:53:34.184Z,3.25
2019-05-21T10:56:26.985Z,4.97
2019-05-21T10:59:21.071Z,5.58
2019-05-21T11:02:25.132Z,6.85
2019-05-21T11:05:28.522Z,4.03
2019-05-21T11:08:23.922Z,7.03
2019-05-21T11:11:11.982Z,7.30
2019-05-21T11:14:04.780Z,4.28
2019-05-21T11:16:57.575Z,4.08
2019-05-21T11:19:50.382Z,6.92
2019-05-21T11:22:43.205Z,5.70
2019-05-21T11:25:35.977Z,5.20
2019-05-21T11:28:28.777Z,3.37
2019-05-21T11:31:21.836Z,4.87
2019-05-21T11:34:14.889Z,2.35
2019-05-21T11:37:07.953Z,5.75
2019-05-21T11:40:00.743Z,3.70
2019-05-21T11:42:54.834Z,3.90
2019-05-21T11:45:47.629Z,3.62
2019-05-21T11:48:36.847Z,3.70
2019-05-21T11:51:29.640Z,4.12
2019-05-21T11:54:22.704Z,3.20
2019-05-21T11:57:15.755Z,3.27
2019-05-21T12:00:08.552Z,4.53
2019-05-21T12:03:01.609Z,5.05
2019-05-21T12:06:01.835Z,3.00
2019-05-21T12:08:57.082Z,4.67
2019-05-21T12:11:47.433Z,2.60
2019-05-21T12:14:40.231Z,4.72
2019-05-21T12:17:34.064Z,5.40
2019-05-21T12:20:36.570Z,3.50
2019-05-21T12:23:20.171Z,4.40
2019-05-21T12:26:12.969Z,2.47
2019-05-21T12:29:05.768Z,3.00
2019-05-21T12:31:55.905Z,3.90
2019-05-21T12:34:48.553Z,2.87
2019-05-21T12:37:41.649Z,2.75
2019-05-21T12:40:34.409Z,2.90
2019-05-21T12:43:27.208Z,5.30
2019-05-21T12:46:20.082Z,3.08
2019-05-21T12:49:13.321Z,4.10
2019-05-21T12:52:07.409Z,2.58
2019-05-21T12:55:00.462Z,3.33
2019-05-21T12:57:53.512Z,3.17
2019-05-21T13:00:43.751Z,3.62
2019-05-21T13:03:36.551Z,2.70
2019-05-21T13:06:29.609Z,2.72
2019-05-21T13:09:32.325Z,1.92
2019-05-21T13:12:15.465Z,3.27
2019-05-21T13:15:08.524Z,2.80
2019-05-21T13:18:01.324Z,2.62
2019-05-21T13:20:54.123Z,2.40
2019-05-21T13:23:46.921Z,2.33
2019-05-21T13:26:36.142Z,2.30
2019-05-21T13:29:29.976Z,3.58
2019-05-21T13:32:22.759Z,2.60
2019-05-21T13:35:15.562Z,3.05
2019-05-21T13:38:13.156Z,2.90
2019-05-21T13:41:02.701Z,2.00
2019-05-21T13:43:55.500Z,2.02
2019-05-21T13:46:49.326Z,2.30
2019-05-21T13:49:43.144Z,2.72
2019-05-21T13:52:35.944Z,2.70
2019-05-21T13:55:31.881Z,3.75
2019-05-21T13:58:21.801Z,2.83
2019-05-21T14:01:16.098Z,2.45
2019-05-21T14:04:07.407Z,2.00
2019-05-21T14:06:56.609Z,1.40
2019-05-21T14:10:12.484Z,1.45
2019-05-21T14:12:48.105Z,1.20
2019-05-21T14:15:41.420Z,1.00
2019-05-21T14:18:34.472Z,1.00
2019-05-21T14:21:27.533Z,1.10
2019-05-21T14:24:20.351Z,0.93
2019-05-21T14:27:13.643Z,1.17
2019-05-21T14:30:00.970Z,1.15
2019-05-21T14:32:50.215Z,1.05
2019-05-21T14:35:43.081Z,1.10
2019-05-21T14:38:35.885Z,1.00
2019-05-21T14:41:28.690Z,1.15
2019-05-21T14:44:21.479Z,0.98
2019-05-21T14:47:14.282Z,1.10
2019-05-21T14:50:07.336Z,1.10
2019-05-21T14:53:00.138Z,0.80
2019-05-21T14:55:52.936Z,1.32
2019-05-21T14:59:40.777Z,1.00
2019-05-21T15:02:36.904Z,1.30
2019-05-21T15:05:26.635Z,1.47
2019-05-21T15:08:15.991Z,1.10
2019-05-21T15:11:08.918Z,1.75
2019-05-21T15:13:58.548Z,1.65
2019-05-21T15:16:51.945Z,1.27
2019-05-21T15:19:44.751Z,1.85
2019-05-21T15:22:37.802Z,1.20
2019-05-21T15:25:30.604Z,1.37
2019-05-21T15:28:23.405Z,1.30
2019-05-21T15:31:16.456Z,2.20
2019-05-21T15:34:09.257Z,1.50
2019-05-21T15:37:02.072Z,1.80
2019-05-21T15:39:55.881Z,1.40
2019-05-21T15:42:52.905Z,1.55
2019-05-21T15:45:37.852Z,1.37
2019-05-21T15:48:27.233Z,1.57
2019-05-21T15:51:19.926Z,2.62
2019-05-21T15:54:12.754Z,1.55
2019-05-21T15:57:05.517Z,1.80
2019-05-21T15:59:58.824Z,1.45
2019-05-21T16:02:51.889Z,1.70
2019-05-21T16:05:45.191Z,1.60
2019-05-21T16:08:38.259Z,1.60
2019-05-21T16:11:31.109Z,2.30
2019-05-21T16:14:25.640Z,1.77
2019-05-21T16:17:18.700Z,2.00
2019-05-21T16:20:12.022Z,2.92
2019-05-21T16:23:05.840Z,2.47
2019-05-21T16:25:59.656Z,1.80
2019-05-21T16:28:52.456Z,2.40
2019-05-21T16:31:45.512Z,2.50
2019-05-21T16:34:38.570Z,1.87
2019-05-21T16:37:32.396Z,1.70
2019-05-21T16:40:25.449Z,1.92
2019-05-21T16:43:18.509Z,1.55
2019-05-21T16:46:11.302Z,1.60
2019-05-21T16:49:04.366Z,1.77
2019-05-21T16:51:57.167Z,1.70
2019-05-21T16:54:50.984Z,1.57
2019-05-21T16:57:44.040Z,1.72
2019-05-21T17:00:48.616Z,1.32
2019-05-21T17:03:41.673Z,1.72
2019-05-21T17:06:34.729Z,1.55
2019-05-21T17:09:28.497Z,1.47
2019-05-21T17:12:21.095Z,1.20
2019-05-21T17:15:14.152Z,1.25
2019-05-21T17:18:07.207Z,1.72
2019-05-21T17:21:00.777Z,1.50
2019-05-21T17:23:53.832Z,1.30
2019-05-21T17:26:46.633Z,1.10
2019-05-21T17:29:39.432Z,1.35
2019-05-21T17:32:32.232Z,1.95
2019-05-21T17:35:25.293Z,2.00
2019-05-21T17:38:18.121Z,2.30
2019-05-21T17:41:11.149Z,1.77
2019-05-21T17:44:04.205Z,1.45
2019-05-21T17:46:57.254Z,1.85
2019-05-21T17:49:50.312Z,2.65
2019-05-21T17:52:43.116Z,1.65
2019-05-21T17:55:36.173Z,2.20
2019-05-21T17:58:29.232Z,2.60
2019-05-21T18:01:22.281Z,1.70
2019-05-21T18:04:15.080Z,1.35
2019-05-21T18:07:08.148Z,1.50
2019-05-21T18:10:01.194Z,1.95
2019-05-21T18:12:54.252Z,1.72
2019-05-21T18:15:47.304Z,1.62
2019-05-21T18:18:40.361Z,1.65
2019-05-21T18:21:33.168Z,1.77
2019-05-21T18:24:26.215Z,2.12
2019-05-21T18:27:19.282Z,1.77
2019-05-21T18:30:13.102Z,1.95
2019-05-21T18:33:05.907Z,2.25
2019-05-21T18:35:58.963Z,2.65
2019-05-21T18:38:52.775Z,2.10
2019-05-21T18:41:46.631Z,2.77
2019-05-21T18:44:39.659Z,3.33
2019-05-21T18:47:32.972Z,2.08
2019-05-21T18:50:35.704Z,2.80
2019-05-21T18:53:18.826Z,2.40
2019-05-21T18:56:11.884Z,1.87
2019-05-21T18:59:05.192Z,2.37
2019-05-21T19:01:59.273Z,4.47
2019-05-21T19:04:52.071Z,2.75
2019-05-21T19:07:44.874Z,2.83
2019-05-21T19:10:34.089Z,3.87
2019-05-21T19:13:27.144Z,3.15
2019-05-21T19:16:19.948Z,2.80
2019-05-21T19:19:13.001Z,2.70
2019-05-21T19:22:06.062Z,3.30
2019-05-21T19:24:59.117Z,3.30
2019-05-21T19:27:53.192Z,2.75
2019-05-21T19:30:46.762Z,3.10
2019-05-21T19:33:47.244Z,3.70
2019-05-21T19:36:41.580Z,3.25
2019-05-21T19:39:34.895Z,3.35
2019-05-21T19:42:27.697Z,2.45
2019-05-21T19:45:17.124Z,3.87
2019-05-21T19:48:09.962Z,3.67
2019-05-21T19:51:00.542Z,2.62
2019-05-21T19:53:53.513Z,2.22
2019-05-21T19:56:46.568Z,2.15
2019-05-21T19:59:36.179Z,2.77
2019-05-21T20:02:29.355Z,2.52
2019-05-21T20:05:22.408Z,3.50
2019-05-21T20:08:15.209Z,2.50
2019-05-21T20:11:08.009Z,2.05
2019-05-21T20:14:00.808Z,3.37
2019-05-21T20:16:50.560Z,3.58
2019-05-21T20:19:39.245Z,2.25
2019-05-21T20:22:28.397Z,2.50
2019-05-21T20:25:21.256Z,2.72
2019-05-21T20:28:14.314Z,1.90
2019-05-21T20:31:07.116Z,2.25
2019-05-21T20:34:00.426Z,1.98
2019-05-21T20:36:53.230Z,2.67
2019-05-21T20:39:46.537Z,2.15
2019-05-21T20:42:39.862Z,1.87
2019-05-21T20:45:33.161Z,3.67
2019-05-21T20:48:25.973Z,4.05
2019-05-21T20:51:19.273Z,2.05
2019-05-21T20:54:12.593Z,2.17
2019-05-21T20:57:05.910Z,1.87
2019-05-21T20:59:59.214Z,1.98
2019-05-21T21:02:48.746Z,2.10
2019-05-21T21:05:41.751Z,2.52
2019-05-21T21:08:35.047Z,4.12
2019-05-21T21:11:28.105Z,3.75
2019-05-21T21:14:21.927Z,4.05
2019-05-21T21:17:14.987Z,3.45
2019-05-21T21:20:08.049Z,3.72
2019-05-21T21:23:01.095Z,3.80
2019-05-21T21:25:53.929Z,3.37
2019-05-21T21:28:46.955Z,4.10
2019-05-21T21:31:42.057Z,2.87
2019-05-21T21:34:34.891Z,3.52
2019-05-21T21:37:27.911Z,2.98
2019-05-21T21:40:22.507Z,3.60
2019-05-21T21:43:16.329Z,3.75
2019-05-21T21:46:09.130Z,3.00
2019-05-21T21:48:58.343Z,3.65
2019-05-21T21:51:51.415Z,3.70
2019-05-21T21:54:44.459Z,2.95
2019-05-21T21:57:37.256Z,3.30
2019-05-21T22:00:27.497Z,2.77
2019-05-21T22:03:21.095Z,3.20
2019-05-21T22:06:15.446Z,3.15
2019-05-21T22:09:09.769Z,2.33
2019-05-21T22:11:58.696Z,3.42
2019-05-21T22:14:52.522Z,3.30
2019-05-21T22:17:45.320Z,4.03
2019-05-21T22:20:38.132Z,2.05
2019-05-21T22:23:30.919Z,4.62
2019-05-21T22:26:20.932Z,4.25
2019-05-21T22:29:13.960Z,2.40
2019-05-21T22:32:07.017Z,4.25
2019-05-21T22:35:00.071Z,4.78
2019-05-21T22:37:52.891Z,2.90
2019-05-21T22:40:46.951Z,5.42
2019-05-21T22:43:40.270Z,5.83
2019-05-21T22:46:33.327Z,3.77
2019-05-21T22:49:20.747Z,5.47
2019-05-21T22:52:10.351Z,5.50
2019-05-21T22:55:03.271Z,3.67
2019-05-21T22:57:56.336Z,5.00
2019-05-21T23:00:50.154Z,3.47
2019-05-21T23:03:43.982Z,4.28
2019-05-21T23:06:36.780Z,2.52
2019-05-21T23:09:29.839Z,3.37
2019-05-21T23:12:22.639Z,3.33
2019-05-21T23:15:24.609Z,2.70
2019-05-21T23:18:08.489Z,4.20
2019-05-21T23:21:19.718Z,4.55
2019-05-21T23:24:12.521Z,3.83
2019-05-21T23:27:05.576Z,2.80
2019-05-21T23:29:58.635Z,3.67
2019-05-21T23:32:52.714Z,4.45
2019-05-21T23:35:45.769Z,5.00
2019-05-21T23:38:38.825Z,4.85
2019-05-21T23:41:31.899Z,4.87
2019-05-21T23:44:24.954Z,4.67
2019-05-21T23:47:18.000Z,5.35
2019-05-21T23:50:10.795Z,4.92
2019-05-21T23:53:04.108Z,5.53
2019-05-21T23:55:57.930Z,5.10
2019-05-21T23:58:50.727Z,5.78
